sensor_id;sensor_type;location;lat;lon;timestamp;P1;durP1;ratioP1;P2;durP2;ratioP2
12861;SDS011;6499;66.348;14.134;2023-08-01T00:01:44;2.37;;;1.60;;
12861;SDS011;6499;66.348;14.134;2023-08-01T00:04:12;1.20;;;1.10;;
12861;SDS011;6499;66.348;14.134;2023-08-01T00:06:39;1.20;;;1.00;;
12861;SDS011;6499;66.348;14.134;2023-08-01T00:09:05;1.07;;;1.07;;
12861;SDS011;6499;66.348;14.134;2023-08-01T00:11:31;1.33;;;1.23;;
12861;SDS011;6499;66.348;14.134;2023-08-01T00:13:58;1.23;;;1.07;;
12861;SDS011;6499;66.348;14.134;2023-08-01T00:16:25;1.47;;;1.37;;
12861;SDS011;6499;66.348;14.134;2023-08-01T00:18:51;1.17;;;1.10;;
12861;SDS011;6499;66.348;14.134;2023-08-01T00:21:19;1.23;;;1.13;;
12861;SDS011;6499;66.348;14.134;2023-08-01T00:23:46;1.30;;;1.20;;
12861;SDS011;6499;66.348;14.134;2023-08-01T00:26:12;1.00;;;1.00;;
12861;SDS011;6499;66.348;14.134;2023-08-01T00:28:39;1.30;;;1.20;;
12861;SDS011;6499;66.348;14.134;2023-08-01T00:31:06;1.40;;;1.30;;
12861;SDS011;6499;66.348;14.134;2023-08-01T00:33:33;1.40;;;1.30;;
12861;SDS011;6499;66.348;14.134;2023-08-01T00:36:00;1.60;;;1.20;;
12861;SDS011;6499;66.348;14.134;2023-08-01T00:38:28;1.20;;;1.10;;
12861;SDS011;6499;66.348;14.134;2023-08-01T00:40:55;1.53;;;1.33;;
12861;SDS011;6499;66.348;14.134;2023-08-01T00:43:21;1.40;;;1.30;;
12861;SDS011;6499;66.348;14.134;2023-08-01T00:45:48;1.40;;;1.30;;
12861;SDS011;6499;66.348;14.134;2023-08-01T00:48:15;1.50;;;1.40;;
12861;SDS011;6499;66.348;14.134;2023-08-01T00:50:42;1.40;;;1.30;;
12861;SDS011;6499;66.348;14.134;2023-08-01T00:53:08;1.33;;;1.23;;
12861;SDS011;6499;66.348;14.134;2023-08-01T00:55:36;1.40;;;1.30;;
12861;SDS011;6499;66.348;14.134;2023-08-01T00:58:03;1.50;;;1.40;;
12861;SDS011;6499;66.348;14.134;2023-08-01T01:00:30;1.13;;;1.10;;
12861;SDS011;6499;66.348;14.134;2023-08-01T01:02:57;1.50;;;1.40;;
12861;SDS011;6499;66.348;14.134;2023-08-01T01:05:24;2.00;;;1.30;;
12861;SDS011;6499;66.348;14.134;2023-08-01T01:07:51;2.00;;;1.17;;
12861;SDS011;6499;66.348;14.134;2023-08-01T01:10:18;1.70;;;1.40;;
12861;SDS011;6499;66.348;14.134;2023-08-01T01:12:46;2.40;;;1.23;;
12861;SDS011;6499;66.348;14.134;2023-08-01T01:15:15;1.20;;;1.10;;
12861;SDS011;6499;66.348;14.134;2023-08-01T01:17:42;1.27;;;1.17;;
12861;SDS011;6499;66.348;14.134;2023-08-01T01:20:08;2.40;;;1.30;;
12861;SDS011;6499;66.348;14.134;2023-08-01T01:22:37;1.30;;;1.20;;
12861;SDS011;6499;66.348;14.134;2023-08-01T01:25:04;1.20;;;1.10;;
12861;SDS011;6499;66.348;14.134;2023-08-01T01:27:31;1.40;;;1.30;;
12861;SDS011;6499;66.348;14.134;2023-08-01T01:29:57;1.20;;;1.10;;
12861;SDS011;6499;66.348;14.134;2023-08-01T01:32:24;1.50;;;1.40;;
12861;SDS011;6499;66.348;14.134;2023-08-01T01:34:51;1.40;;;1.30;;
12861;SDS011;6499;66.348;14.134;2023-08-01T01:37:17;1.50;;;1.40;;
12861;SDS011;6499;66.348;14.134;2023-08-01T01:39:45;1.40;;;1.30;;
12861;SDS011;6499;66.348;14.134;2023-08-01T01:42:12;1.57;;;1.47;;
12861;SDS011;6499;66.348;14.134;2023-08-01T01:44:39;1.53;;;1.27;;
12861;SDS011;6499;66.348;14.134;2023-08-01T01:47:05;1.63;;;1.20;;
12861;SDS011;6499;66.348;14.134;2023-08-01T01:49:32;1.50;;;1.40;;
12861;SDS011;6499;66.348;14.134;2023-08-01T01:51:58;1.13;;;1.10;;
12861;SDS011;6499;66.348;14.134;2023-08-01T01:54:25;1.70;;;1.30;;
12861;SDS011;6499;66.348;14.134;2023-08-01T01:56:53;1.40;;;1.30;;
12861;SDS011;6499;66.348;14.134;2023-08-01T01:59:19;1.83;;;1.20;;
12861;SDS011;6499;66.348;14.134;2023-08-01T02:01:46;1.50;;;1.40;;
12861;SDS011;6499;66.348;14.134;2023-08-01T02:04:12;1.50;;;1.30;;
12861;SDS011;6499;66.348;14.134;2023-08-01T02:06:39;1.30;;;1.20;;
12861;SDS011;6499;66.348;14.134;2023-08-01T02:09:05;1.30;;;1.20;;
12861;SDS011;6499;66.348;14.134;2023-08-01T02:11:32;1.40;;;1.30;;
12861;SDS011;6499;66.348;14.134;2023-08-01T02:14:00;1.30;;;1.20;;
12861;SDS011;6499;66.348;14.134;2023-08-01T02:16:28;1.50;;;1.40;;
12861;SDS011;6499;66.348;14.134;2023-08-01T02:18:54;1.47;;;1.37;;
12861;SDS011;6499;66.348;14.134;2023-08-01T02:21:21;0.97;;;0.97;;
12861;SDS011;6499;66.348;14.134;2023-08-01T02:23:47;1.50;;;1.40;;
12861;SDS011;6499;66.348;14.134;2023-08-01T02:26:14;1.43;;;1.33;;
12861;SDS011;6499;66.348;14.134;2023-08-01T02:28:40;1.40;;;1.30;;
12861;SDS011;6499;66.348;14.134;2023-08-01T02:31:08;1.63;;;1.20;;
12861;SDS011;6499;66.348;14.134;2023-08-01T02:33:35;1.40;;;1.30;;
12861;SDS011;6499;66.348;14.134;2023-08-01T02:36:01;1.00;;;1.00;;
12861;SDS011;6499;66.348;14.134;2023-08-01T02:38:28;1.70;;;1.27;;
12861;SDS011;6499;66.348;14.134;2023-08-01T02:40:55;1.47;;;1.37;;
12861;SDS011;6499;66.348;14.134;2023-08-01T02:43:21;1.40;;;1.30;;
12861;SDS011;6499;66.348;14.134;2023-08-01T02:45:48;1.10;;;1.10;;
12861;SDS011;6499;66.348;14.134;2023-08-01T02:48:16;1.20;;;1.10;;
12861;SDS011;6499;66.348;14.134;2023-08-01T02:50:42;1.43;;;1.30;;
12861;SDS011;6499;66.348;14.134;2023-08-01T02:53:09;1.20;;;1.10;;
12861;SDS011;6499;66.348;14.134;2023-08-01T02:55:35;1.40;;;1.30;;
12861;SDS011;6499;66.348;14.134;2023-08-01T02:58:02;1.27;;;1.17;;
12861;SDS011;6499;66.348;14.134;2023-08-01T03:00:28;1.33;;;1.20;;
12861;SDS011;6499;66.348;14.134;2023-08-01T03:02:56;1.53;;;1.30;;
12861;SDS011;6499;66.348;14.134;2023-08-01T03:05:24;1.33;;;1.23;;
12861;SDS011;6499;66.348;14.134;2023-08-01T03:07:51;1.27;;;1.17;;
12861;SDS011;6499;66.348;14.134;2023-08-01T03:10:17;1.20;;;1.10;;
12861;SDS011;6499;66.348;14.134;2023-08-01T03:12:44;1.50;;;1.10;;
12861;SDS011;6499;66.348;14.134;2023-08-01T03:15:10;1.23;;;1.13;;
12861;SDS011;6499;66.348;14.134;2023-08-01T03:17:37;1.73;;;1.10;;
12861;SDS011;6499;66.348;14.134;2023-08-01T03:20:04;1.10;;;1.10;;
12861;SDS011;6499;66.348;14.134;2023-08-01T03:22:32;1.10;;;1.10;;
12861;SDS011;6499;66.348;14.134;2023-08-01T03:24:58;1.40;;;1.30;;
12861;SDS011;6499;66.348;14.134;2023-08-01T03:27:24;1.30;;;1.20;;
12861;SDS011;6499;66.348;14.134;2023-08-01T03:29:51;1.30;;;1.20;;
12861;SDS011;6499;66.348;14.134;2023-08-01T03:32:17;1.23;;;1.13;;
12861;SDS011;6499;66.348;14.134;2023-08-01T03:34:45;1.43;;;1.30;;
12861;SDS011;6499;66.348;14.134;2023-08-01T03:37:12;2.03;;;1.30;;
12861;SDS011;6499;66.348;14.134;2023-08-01T03:39:40;1.40;;;1.30;;
12861;SDS011;6499;66.348;14.134;2023-08-01T03:42:06;1.33;;;1.23;;
12861;SDS011;6499;66.348;14.134;2023-08-01T03:44:33;1.20;;;1.10;;
12861;SDS011;6499;66.348;14.134;2023-08-01T03:46:59;1.57;;;1.47;;
12861;SDS011;6499;66.348;14.134;2023-08-01T03:49:26;1.20;;;1.10;;
12861;SDS011;6499;66.348;14.134;2023-08-01T03:51:52;2.03;;;1.40;;
12861;SDS011;6499;66.348;14.134;2023-08-01T03:54:19;1.50;;;1.40;;
12861;SDS011;6499;66.348;14.134;2023-08-01T03:56:47;1.20;;;1.10;;
12861;SDS011;6499;66.348;14.134;2023-08-01T03:59:14;1.40;;;1.30;;
12861;SDS011;6499;66.348;14.134;2023-08-01T04:01:41;1.43;;;1.33;;
12861;SDS011;6499;66.348;14.134;2023-08-01T04:04:08;1.37;;;1.27;;
12861;SDS011;6499;66.348;14.134;2023-08-01T04:06:35;1.50;;;1.40;;
12861;SDS011;6499;66.348;14.134;2023-08-01T04:09:01;1.50;;;1.40;;
12861;SDS011;6499;66.348;14.134;2023-08-01T04:11:28;1.53;;;1.43;;
12861;SDS011;6499;66.348;14.134;2023-08-01T04:13:56;1.30;;;1.20;;
12861;SDS011;6499;66.348;14.134;2023-08-01T04:16:23;1.40;;;1.30;;
12861;SDS011;6499;66.348;14.134;2023-08-01T04:18:49;1.07;;;1.07;;
12861;SDS011;6499;66.348;14.134;2023-08-01T04:21:16;1.50;;;1.40;;
12861;SDS011;6499;66.348;14.134;2023-08-01T04:23:42;1.50;;;1.40;;
12861;SDS011;6499;66.348;14.134;2023-08-01T04:26:08;1.47;;;1.37;;
12861;SDS011;6499;66.348;14.134;2023-08-01T04:28:35;1.47;;;1.37;;
12861;SDS011;6499;66.348;14.134;2023-08-01T04:31:03;1.47;;;1.37;;
12861;SDS011;6499;66.348;14.134;2023-08-01T04:33:29;1.40;;;1.13;;
12861;SDS011;6499;66.348;14.134;2023-08-01T04:35:56;1.03;;;1.03;;
12861;SDS011;6499;66.348;14.134;2023-08-01T04:38:22;1.60;;;1.50;;
12861;SDS011;6499;66.348;14.134;2023-08-01T04:40:49;1.40;;;1.30;;
12861;SDS011;6499;66.348;14.134;2023-08-01T04:43:15;1.33;;;1.23;;
12861;SDS011;6499;66.348;14.134;2023-08-01T04:45:42;1.40;;;1.30;;
12861;SDS011;6499;66.348;14.134;2023-08-01T04:48:10;1.43;;;1.33;;
12861;SDS011;6499;66.348;14.134;2023-08-01T04:50:36;1.30;;;1.20;;
12861;SDS011;6499;66.348;14.134;2023-08-01T04:53:03;2.07;;;1.50;;
12861;SDS011;6499;66.348;14.134;2023-08-01T04:55:31;1.47;;;1.37;;
12861;SDS011;6499;66.348;14.134;2023-08-01T04:57:57;1.30;;;1.20;;
12861;SDS011;6499;66.348;14.134;2023-08-01T05:00:24;2.80;;;1.30;;
12861;SDS011;6499;66.348;14.134;2023-08-01T05:02:50;1.27;;;1.17;;
12861;SDS011;6499;66.348;14.134;2023-08-01T05:05:18;3.53;;;1.40;;
12861;SDS011;6499;66.348;14.134;2023-08-01T05:07:45;1.37;;;1.27;;
12861;SDS011;6499;66.348;14.134;2023-08-01T05:10:11;1.40;;;1.30;;
12861;SDS011;6499;66.348;14.134;2023-08-01T05:12:38;1.50;;;1.40;;
12861;SDS011;6499;66.348;14.134;2023-08-01T05:15:05;1.30;;;1.20;;
12861;SDS011;6499;66.348;14.134;2023-08-01T05:17:31;1.40;;;1.30;;
12861;SDS011;6499;66.348;14.134;2023-08-01T05:19:58;1.50;;;1.40;;
12861;SDS011;6499;66.348;14.134;2023-08-01T05:22:26;1.40;;;1.30;;
12861;SDS011;6499;66.348;14.134;2023-08-01T05:24:53;1.43;;;1.33;;
12861;SDS011;6499;66.348;14.134;2023-08-01T05:27:19;1.30;;;1.20;;
12861;SDS011;6499;66.348;14.134;2023-08-01T05:29:45;1.50;;;1.40;;
12861;SDS011;6499;66.348;14.134;2023-08-01T05:32:12;1.27;;;1.20;;
12861;SDS011;6499;66.348;14.134;2023-08-01T05:34:39;1.40;;;1.30;;
12861;SDS011;6499;66.348;14.134;2023-08-01T05:37:05;1.40;;;1.30;;
12861;SDS011;6499;66.348;14.134;2023-08-01T05:39:33;1.30;;;1.27;;
12861;SDS011;6499;66.348;14.134;2023-08-01T05:42:00;1.33;;;1.23;;
12861;SDS011;6499;66.348;14.134;2023-08-01T05:44:26;1.43;;;1.33;;
12861;SDS011;6499;66.348;14.134;2023-08-01T05:46:52;1.50;;;1.40;;
12861;SDS011;6499;66.348;14.134;2023-08-01T05:49:19;1.53;;;1.43;;
12861;SDS011;6499;66.348;14.134;2023-08-01T05:51:45;1.47;;;1.30;;
12861;SDS011;6499;66.348;14.134;2023-08-01T05:54:12;1.50;;;1.40;;
12861;SDS011;6499;66.348;14.134;2023-08-01T05:56:40;1.33;;;1.23;;
12861;SDS011;6499;66.348;14.134;2023-08-01T05:59:07;1.40;;;1.30;;
12861;SDS011;6499;66.348;14.134;2023-08-01T06:01:33;1.67;;;1.50;;
12861;SDS011;6499;66.348;14.134;2023-08-01T06:04:00;1.13;;;1.03;;
12861;SDS011;6499;66.348;14.134;2023-08-01T06:06:26;1.10;;;1.10;;
12861;SDS011;6499;66.348;14.134;2023-08-01T06:08:53;1.40;;;1.30;;
12861;SDS011;6499;66.348;14.134;2023-08-01T06:11:19;1.53;;;1.43;;
12861;SDS011;6499;66.348;14.134;2023-08-01T06:13:47;1.30;;;1.20;;
12861;SDS011;6499;66.348;14.134;2023-08-01T06:16:14;1.40;;;1.30;;
12861;SDS011;6499;66.348;14.134;2023-08-01T06:18:40;1.50;;;1.40;;
12861;SDS011;6499;66.348;14.134;2023-08-01T06:21:07;1.40;;;1.30;;
12861;SDS011;6499;66.348;14.134;2023-08-01T06:23:33;1.73;;;1.47;;
12861;SDS011;6499;66.348;14.134;2023-08-01T06:26:00;1.33;;;1.23;;
12861;SDS011;6499;66.348;14.134;2023-08-01T06:28:26;1.53;;;1.43;;
12861;SDS011;6499;66.348;14.134;2023-08-01T06:30:54;1.40;;;1.30;;
12861;SDS011;6499;66.348;14.134;2023-08-01T06:33:21;1.60;;;1.50;;
12861;SDS011;6499;66.348;14.134;2023-08-01T06:35:49;1.63;;;1.40;;
12861;SDS011;6499;66.348;14.134;2023-08-01T06:38:15;1.40;;;1.30;;
12861;SDS011;6499;66.348;14.134;2023-08-01T06:40:42;1.30;;;1.20;;
12861;SDS011;6499;66.348;14.134;2023-08-01T06:43:08;1.50;;;1.40;;
12861;SDS011;6499;66.348;14.134;2023-08-01T06:45:35;1.50;;;1.40;;
12861;SDS011;6499;66.348;14.134;2023-08-01T06:48:03;1.47;;;1.30;;
12861;SDS011;6499;66.348;14.134;2023-08-01T06:50:29;1.40;;;1.30;;
12861;SDS011;6499;66.348;14.134;2023-08-01T06:52:56;1.27;;;1.17;;
12861;SDS011;6499;66.348;14.134;2023-08-01T06:55:22;1.17;;;1.17;;
12861;SDS011;6499;66.348;14.134;2023-08-01T06:57:49;1.30;;;1.20;;
12861;SDS011;6499;66.348;14.134;2023-08-01T07:00:15;1.47;;;1.37;;
12861;SDS011;6499;66.348;14.134;2023-08-01T07:02:42;1.40;;;1.30;;
12861;SDS011;6499;66.348;14.134;2023-08-01T07:05:10;1.90;;;1.67;;
12861;SDS011;6499;66.348;14.134;2023-08-01T07:07:36;1.40;;;1.30;;
12861;SDS011;6499;66.348;14.134;2023-08-01T07:10:03;1.30;;;1.20;;
12861;SDS011;6499;66.348;14.134;2023-08-01T07:12:30;1.40;;;1.30;;
12861;SDS011;6499;66.348;14.134;2023-08-01T07:14:56;1.40;;;1.30;;
12861;SDS011;6499;66.348;14.134;2023-08-01T07:17:23;1.60;;;1.50;;
12861;SDS011;6499;66.348;14.134;2023-08-01T07:19:49;1.63;;;1.30;;
12861;SDS011;6499;66.348;14.134;2023-08-01T07:22:17;1.30;;;1.20;;
12861;SDS011;6499;66.348;14.134;2023-08-01T07:24:44;1.40;;;1.30;;
12861;SDS011;6499;66.348;14.134;2023-08-01T07:27:10;1.60;;;1.50;;
12861;SDS011;6499;66.348;14.134;2023-08-01T07:29:37;2.00;;;1.60;;
12861;SDS011;6499;66.348;14.134;2023-08-01T07:32:04;1.73;;;1.40;;
12861;SDS011;6499;66.348;14.134;2023-08-01T07:34:31;1.40;;;1.30;;
12861;SDS011;6499;66.348;14.134;2023-08-01T07:36:58;1.40;;;1.30;;
12861;SDS011;6499;66.348;14.134;2023-08-01T07:39:25;2.20;;;1.20;;
12861;SDS011;6499;66.348;14.134;2023-08-01T07:41:52;1.50;;;1.40;;
12861;SDS011;6499;66.348;14.134;2023-08-01T07:44:19;1.20;;;1.20;;
12861;SDS011;6499;66.348;14.134;2023-08-01T07:46:45;1.43;;;1.33;;
12861;SDS011;6499;66.348;14.134;2023-08-01T07:49:12;1.60;;;1.50;;
12861;SDS011;6499;66.348;14.134;2023-08-01T07:51:38;1.70;;;1.60;;
12861;SDS011;6499;66.348;14.134;2023-08-01T07:54:05;1.53;;;1.43;;
12861;SDS011;6499;66.348;14.134;2023-08-01T07:56:33;1.50;;;1.40;;
12861;SDS011;6499;66.348;14.134;2023-08-01T07:58:59;1.70;;;1.50;;
12861;SDS011;6499;66.348;14.134;2023-08-01T08:01:26;1.70;;;1.60;;
12861;SDS011;6499;66.348;14.134;2023-08-01T08:03:52;1.63;;;1.53;;
12861;SDS011;6499;66.348;14.134;2023-08-01T08:06:28;1.60;;;1.50;;
12861;SDS011;6499;66.348;14.134;2023-08-01T08:08:54;1.53;;;1.43;;
12861;SDS011;6499;66.348;14.134;2023-08-01T08:11:21;1.67;;;1.57;;
12861;SDS011;6499;66.348;14.134;2023-08-01T08:13:49;1.70;;;1.60;;
12861;SDS011;6499;66.348;14.134;2023-08-01T08:16:19;1.33;;;1.23;;
12861;SDS011;6499;66.348;14.134;2023-08-01T08:18:48;1.73;;;1.37;;
12861;SDS011;6499;66.348;14.134;2023-08-01T08:21:16;1.50;;;1.40;;
12861;SDS011;6499;66.348;14.134;2023-08-01T08:23:42;1.97;;;1.60;;
12861;SDS011;6499;66.348;14.134;2023-08-01T08:26:09;1.60;;;1.50;;
12861;SDS011;6499;66.348;14.134;2023-08-01T08:28:36;2.40;;;1.60;;
12861;SDS011;6499;66.348;14.134;2023-08-01T08:31:04;1.50;;;1.40;;
12861;SDS011;6499;66.348;14.134;2023-08-01T08:33:30;1.50;;;1.40;;
12861;SDS011;6499;66.348;14.134;2023-08-01T08:35:57;1.80;;;1.70;;
12861;SDS011;6499;66.348;14.134;2023-08-01T08:38:23;1.80;;;1.70;;
12861;SDS011;6499;66.348;14.134;2023-08-01T08:40:52;1.60;;;1.50;;
12861;SDS011;6499;66.348;14.134;2023-08-01T08:43:21;1.63;;;1.53;;
12861;SDS011;6499;66.348;14.134;2023-08-01T08:45:49;1.50;;;1.30;;
12861;SDS011;6499;66.348;14.134;2023-08-01T08:48:18;1.60;;;1.50;;
12861;SDS011;6499;66.348;14.134;2023-08-01T08:50:45;1.50;;;1.40;;
12861;SDS011;6499;66.348;14.134;2023-08-01T08:53:11;3.40;;;1.60;;
12861;SDS011;6499;66.348;14.134;2023-08-01T08:55:39;1.30;;;1.20;;
12861;SDS011;6499;66.348;14.134;2023-08-01T08:58:05;1.10;;;1.10;;
12861;SDS011;6499;66.348;14.134;2023-08-01T09:00:32;1.30;;;1.20;;
12861;SDS011;6499;66.348;14.134;2023-08-01T09:02:59;1.50;;;1.40;;
12861;SDS011;6499;66.348;14.134;2023-08-01T09:05:28;1.23;;;1.13;;
12861;SDS011;6499;66.348;14.134;2023-08-01T09:07:58;1.30;;;1.20;;
12861;SDS011;6499;66.348;14.134;2023-08-01T09:10:30;1.47;;;1.37;;
12861;SDS011;6499;66.348;14.134;2023-08-01T09:12:57;1.77;;;1.33;;
12861;SDS011;6499;66.348;14.134;2023-08-01T09:15:23;1.40;;;1.30;;
12861;SDS011;6499;66.348;14.134;2023-08-01T09:17:54;1.43;;;1.33;;
12861;SDS011;6499;66.348;14.134;2023-08-01T09:20:25;1.53;;;1.40;;
12861;SDS011;6499;66.348;14.134;2023-08-01T09:22:53;0.90;;;0.90;;
12861;SDS011;6499;66.348;14.134;2023-08-01T09:25:20;0.97;;;0.97;;
12861;SDS011;6499;66.348;14.134;2023-08-01T09:27:56;0.80;;;0.80;;
12861;SDS011;6499;66.348;14.134;2023-08-01T09:30:23;1.27;;;1.20;;
12861;SDS011;6499;66.348;14.134;2023-08-01T09:32:52;1.30;;;1.20;;
12861;SDS011;6499;66.348;14.134;2023-08-01T09:35:19;1.30;;;1.20;;
12861;SDS011;6499;66.348;14.134;2023-08-01T09:37:46;1.20;;;1.10;;
12861;SDS011;6499;66.348;14.134;2023-08-01T09:40:14;1.30;;;1.20;;
12861;SDS011;6499;66.348;14.134;2023-08-01T09:42:42;1.40;;;1.30;;
12861;SDS011;6499;66.348;14.134;2023-08-01T09:45:12;0.90;;;0.90;;
12861;SDS011;6499;66.348;14.134;2023-08-01T09:47:40;1.23;;;1.20;;
12861;SDS011;6499;66.348;14.134;2023-08-01T09:50:08;1.53;;;1.43;;
12861;SDS011;6499;66.348;14.134;2023-08-01T09:52:35;1.30;;;1.20;;
12861;SDS011;6499;66.348;14.134;2023-08-01T09:55:01;1.10;;;1.10;;
12861;SDS011;6499;66.348;14.134;2023-08-01T09:57:30;2.10;;;1.33;;
12861;SDS011;6499;66.348;14.134;2023-08-01T09:59:57;1.37;;;1.20;;
12861;SDS011;6499;66.348;14.134;2023-08-01T10:02:24;1.07;;;1.07;;
12861;SDS011;6499;66.348;14.134;2023-08-01T10:04:51;1.10;;;1.10;;
12861;SDS011;6499;66.348;14.134;2023-08-01T10:07:20;1.13;;;1.03;;
12861;SDS011;6499;66.348;14.134;2023-08-01T10:09:49;0.80;;;0.80;;
12861;SDS011;6499;66.348;14.134;2023-08-01T10:12:16;1.00;;;1.00;;
12861;SDS011;6499;66.348;14.134;2023-08-01T10:14:44;0.90;;;0.90;;
12861;SDS011;6499;66.348;14.134;2023-08-01T10:17:11;0.80;;;0.80;;
12861;SDS011;6499;66.348;14.134;2023-08-01T10:19:38;1.07;;;1.00;;
12861;SDS011;6499;66.348;14.134;2023-08-01T10:22:05;1.20;;;1.10;;
12861;SDS011;6499;66.348;14.134;2023-08-01T10:24:32;0.80;;;0.80;;
12861;SDS011;6499;66.348;14.134;2023-08-01T10:27:08;0.80;;;0.80;;
12861;SDS011;6499;66.348;14.134;2023-08-01T10:29:35;0.90;;;0.90;;
12861;SDS011;6499;66.348;14.134;2023-08-01T10:32:03;0.90;;;0.77;;
12861;SDS011;6499;66.348;14.134;2023-08-01T10:34:32;1.00;;;1.00;;
12861;SDS011;6499;66.348;14.134;2023-08-01T10:36:59;1.27;;;1.17;;
12861;SDS011;6499;66.348;14.134;2023-08-01T10:39:26;1.53;;;0.90;;
12861;SDS011;6499;66.348;14.134;2023-08-01T10:41:56;1.90;;;1.00;;
12861;SDS011;6499;66.348;14.134;2023-08-01T10:44:23;1.00;;;1.00;;
12861;SDS011;6499;66.348;14.134;2023-08-01T10:46:50;2.10;;;1.20;;
12861;SDS011;6499;66.348;14.134;2023-08-01T10:49:19;0.80;;;0.80;;
12861;SDS011;6499;66.348;14.134;2023-08-01T10:51:46;0.90;;;0.90;;
12861;SDS011;6499;66.348;14.134;2023-08-01T10:54:19;0.80;;;0.80;;
12861;SDS011;6499;66.348;14.134;2023-08-01T10:56:47;0.73;;;0.73;;
12861;SDS011;6499;66.348;14.134;2023-08-01T10:59:15;0.73;;;0.73;;
12861;SDS011;6499;66.348;14.134;2023-08-01T11:01:45;1.47;;;0.80;;
12861;SDS011;6499;66.348;14.134;2023-08-01T11:04:15;0.73;;;0.73;;
12861;SDS011;6499;66.348;14.134;2023-08-01T11:06:44;0.70;;;0.70;;
12861;SDS011;6499;66.348;14.134;2023-08-01T11:09:18;0.93;;;0.73;;
12861;SDS011;6499;66.348;14.134;2023-08-01T11:11:47;0.60;;;0.60;;
12861;SDS011;6499;66.348;14.134;2023-08-01T11:14:14;0.50;;;0.50;;
12861;SDS011;6499;66.348;14.134;2023-08-01T11:16:41;0.70;;;0.70;;
12861;SDS011;6499;66.348;14.134;2023-08-01T11:19:17;0.50;;;0.50;;
12861;SDS011;6499;66.348;14.134;2023-08-01T11:21:45;1.07;;;0.50;;
12861;SDS011;6499;66.348;14.134;2023-08-01T11:24:12;0.50;;;0.50;;
12861;SDS011;6499;66.348;14.134;2023-08-01T11:26:40;0.50;;;0.50;;
12861;SDS011;6499;66.348;14.134;2023-08-01T11:29:06;0.47;;;0.47;;
12861;SDS011;6499;66.348;14.134;2023-08-01T11:31:33;0.50;;;0.50;;
12861;SDS011;6499;66.348;14.134;2023-08-01T11:33:59;0.30;;;0.30;;
12861;SDS011;6499;66.348;14.134;2023-08-01T11:36:26;0.50;;;0.50;;
12861;SDS011;6499;66.348;14.134;2023-08-01T11:38:54;1.10;;;0.40;;
12861;SDS011;6499;66.348;14.134;2023-08-01T11:41:22;0.50;;;0.50;;
12861;SDS011;6499;66.348;14.134;2023-08-01T11:43:48;0.50;;;0.50;;
12861;SDS011;6499;66.348;14.134;2023-08-01T11:46:15;0.50;;;0.50;;
12861;SDS011;6499;66.348;14.134;2023-08-01T11:48:44;0.40;;;0.40;;
12861;SDS011;6499;66.348;14.134;2023-08-01T11:51:10;0.40;;;0.40;;
12861;SDS011;6499;66.348;14.134;2023-08-01T11:53:37;0.57;;;0.40;;
12861;SDS011;6499;66.348;14.134;2023-08-01T11:56:05;0.40;;;0.40;;
12861;SDS011;6499;66.348;14.134;2023-08-01T11:58:32;0.40;;;0.40;;
12861;SDS011;6499;66.348;14.134;2023-08-01T12:01:03;0.50;;;0.50;;
12861;SDS011;6499;66.348;14.134;2023-08-01T12:03:30;0.57;;;0.57;;
12861;SDS011;6499;66.348;14.134;2023-08-01T12:06:04;1.20;;;0.50;;
12861;SDS011;6499;66.348;14.134;2023-08-01T12:08:33;0.60;;;0.60;;
12861;SDS011;6499;66.348;14.134;2023-08-01T12:10:59;1.07;;;0.60;;
12861;SDS011;6499;66.348;14.134;2023-08-01T12:13:27;0.87;;;0.60;;
12861;SDS011;6499;66.348;14.134;2023-08-01T12:15:54;0.60;;;0.60;;
12861;SDS011;6499;66.348;14.134;2023-08-01T12:18:22;0.80;;;0.80;;
12861;SDS011;6499;66.348;14.134;2023-08-01T12:20:49;0.80;;;0.80;;
12861;SDS011;6499;66.348;14.134;2023-08-01T12:23:15;1.23;;;0.70;;
12861;SDS011;6499;66.348;14.134;2023-08-01T12:25:42;0.83;;;0.70;;
12861;SDS011;6499;66.348;14.134;2023-08-01T12:28:08;0.60;;;0.60;;
12861;SDS011;6499;66.348;14.134;2023-08-01T12:30:38;0.80;;;0.80;;
12861;SDS011;6499;66.348;14.134;2023-08-01T12:33:05;0.80;;;0.80;;
12861;SDS011;6499;66.348;14.134;2023-08-01T12:35:32;0.90;;;0.90;;
12861;SDS011;6499;66.348;14.134;2023-08-01T12:37:58;0.87;;;0.87;;
12861;SDS011;6499;66.348;14.134;2023-08-01T12:40:25;0.80;;;0.80;;
12861;SDS011;6499;66.348;14.134;2023-08-01T12:42:51;0.80;;;0.80;;
12861;SDS011;6499;66.348;14.134;2023-08-01T12:45:18;1.00;;;1.00;;
12861;SDS011;6499;66.348;14.134;2023-08-01T12:47:46;1.77;;;0.80;;
12861;SDS011;6499;66.348;14.134;2023-08-01T12:50:12;0.80;;;0.80;;
12861;SDS011;6499;66.348;14.134;2023-08-01T12:52:39;1.27;;;0.97;;
12861;SDS011;6499;66.348;14.134;2023-08-01T12:55:06;2.00;;;0.90;;
12861;SDS011;6499;66.348;14.134;2023-08-01T12:57:33;1.47;;;0.87;;
12861;SDS011;6499;66.348;14.134;2023-08-01T12:59:59;1.80;;;0.90;;
12861;SDS011;6499;66.348;14.134;2023-08-01T13:02:26;1.63;;;1.03;;
12861;SDS011;6499;66.348;14.134;2023-08-01T13:04:54;1.10;;;1.00;;
12861;SDS011;6499;66.348;14.134;2023-08-01T13:07:21;0.80;;;0.80;;
12861;SDS011;6499;66.348;14.134;2023-08-01T13:09:47;0.93;;;0.93;;
12861;SDS011;6499;66.348;14.134;2023-08-01T13:12:14;1.17;;;0.60;;
12861;SDS011;6499;66.348;14.134;2023-08-01T13:14:40;0.87;;;0.87;;
12861;SDS011;6499;66.348;14.134;2023-08-01T13:17:06;0.67;;;0.67;;
12861;SDS011;6499;66.348;14.134;2023-08-01T13:19:33;1.20;;;0.80;;
12861;SDS011;6499;66.348;14.134;2023-08-01T13:22:01;1.33;;;0.90;;
12861;SDS011;6499;66.348;14.134;2023-08-01T13:24:29;0.80;;;0.80;;
12861;SDS011;6499;66.348;14.134;2023-08-01T13:26:55;1.23;;;1.00;;
12861;SDS011;6499;66.348;14.134;2023-08-01T13:29:22;0.80;;;0.80;;
12861;SDS011;6499;66.348;14.134;2023-08-01T13:31:48;1.17;;;0.80;;
12861;SDS011;6499;66.348;14.134;2023-08-01T13:34:15;0.77;;;0.70;;
12861;SDS011;6499;66.348;14.134;2023-08-01T13:36:42;0.70;;;0.70;;
12861;SDS011;6499;66.348;14.134;2023-08-01T13:39:10;0.80;;;0.80;;
12861;SDS011;6499;66.348;14.134;2023-08-01T13:41:37;0.70;;;0.70;;
12861;SDS011;6499;66.348;14.134;2023-08-01T13:44:03;0.50;;;0.50;;
12861;SDS011;6499;66.348;14.134;2023-08-01T13:46:30;0.53;;;0.53;;
12861;SDS011;6499;66.348;14.134;2023-08-01T13:48:56;0.70;;;0.70;;
12861;SDS011;6499;66.348;14.134;2023-08-01T13:51:23;0.57;;;0.57;;
12861;SDS011;6499;66.348;14.134;2023-08-01T13:53:50;1.20;;;0.60;;
12861;SDS011;6499;66.348;14.134;2023-08-01T13:56:17;0.70;;;0.70;;
12861;SDS011;6499;66.348;14.134;2023-08-01T13:58:44;0.70;;;0.70;;
12861;SDS011;6499;66.348;14.134;2023-08-01T14:01:11;0.50;;;0.50;;
12861;SDS011;6499;66.348;14.134;2023-08-01T14:03:38;0.97;;;0.60;;
12861;SDS011;6499;66.348;14.134;2023-08-01T14:06:05;1.13;;;0.70;;
12861;SDS011;6499;66.348;14.134;2023-08-01T14:08:31;0.60;;;0.60;;
12861;SDS011;6499;66.348;14.134;2023-08-01T14:10:58;0.60;;;0.60;;
12861;SDS011;6499;66.348;14.134;2023-08-01T14:13:26;0.70;;;0.70;;
12861;SDS011;6499;66.348;14.134;2023-08-01T14:15:52;0.70;;;0.70;;
12861;SDS011;6499;66.348;14.134;2023-08-01T14:18:19;0.60;;;0.60;;
12861;SDS011;6499;66.348;14.134;2023-08-01T14:20:46;0.93;;;0.80;;
12861;SDS011;6499;66.348;14.134;2023-08-01T14:23:12;0.70;;;0.70;;
12861;SDS011;6499;66.348;14.134;2023-08-01T14:25:39;0.60;;;0.60;;
12861;SDS011;6499;66.348;14.134;2023-08-01T14:28:05;0.70;;;0.60;;
12861;SDS011;6499;66.348;14.134;2023-08-01T14:30:33;0.90;;;0.70;;
12861;SDS011;6499;66.348;14.134;2023-08-01T14:33:00;1.23;;;0.70;;
12861;SDS011;6499;66.348;14.134;2023-08-01T14:35:27;0.60;;;0.60;;
12861;SDS011;6499;66.348;14.134;2023-08-01T14:37:53;0.80;;;0.70;;
12861;SDS011;6499;66.348;14.134;2023-08-01T14:40:20;0.50;;;0.50;;
12861;SDS011;6499;66.348;14.134;2023-08-01T14:42:47;0.60;;;0.60;;
12861;SDS011;6499;66.348;14.134;2023-08-01T14:45:13;1.23;;;0.60;;
12861;SDS011;6499;66.348;14.134;2023-08-01T14:47:41;0.60;;;0.60;;